Time;durP1;ratioP1;P1;durP2;ratioP2;P2;SDS_P1;SDS_P2;PMS_P1;PMS_P2;Temp;Humidity;BMP_temperature;BMP_pressure;BME280_temperature;BME280_humidity;BME280_pressure;Samples;Min_cycle;Max_cycle;Signal;HPM_P1;HPM_P2
2022/05/29 00:00:22;;;;;;;7.90;2.00;;;10.40;99.90;;;;;;4970424;28;20257;-62
2022/05/29 00:02:49;;;;;;;10.20;3.10;;;10.40;99.90;;;;;;4991471;28;20827;-62
2022/05/29 00:05:16;;;;;;;12.33;2.60;;;10.40;99.90;;;;;;4990174;28;20216;-62
2022/05/29 00:07:50;;;;;;;12.37;2.67;;;10.40;99.90;;;;;;4981098;28;20203;-62
2022/05/29 00:10:17;;;;;;;8.93;2.50;;;10.40;99.90;;;;;;4988958;28;20207;-62
2022/05/29 00:12:44;;;;;;;6.53;2.37;;;10.40;99.90;;;;;;4978936;28;20329;-61
2022/05/29 00:15:12;;;;;;;9.73;2.42;;;10.50;99.90;;;;;;4974463;28;21039;-62
2022/05/29 00:17:39;;;;;;;6.60;2.75;;;10.50;99.90;;;;;;4993973;28;20210;-62
2022/05/29 00:20:07;;;;;;;9.32;2.55;;;10.50;99.90;;;;;;4982175;28;20396;-62
2022/05/29 00:22:34;;;;;;;12.68;3.05;;;10.40;99.90;;;;;;4977144;28;20809;-62
2022/05/29 00:25:08;;;;;;;7.00;2.70;;;10.40;99.90;;;;;;4986812;28;20205;-62
2022/05/29 00:27:35;;;;;;;4.70;2.57;;;10.40;99.90;;;;;;4974267;28;20215;-62
2022/05/29 00:30:03;;;;;;;15.47;2.93;;;10.30;99.90;;;;;;4982266;28;20209;-62
2022/05/29 00:32:30;;;;;;;13.60;2.60;;;10.40;99.90;;;;;;4983009;28;20214;-62
2022/05/29 00:34:57;;;;;;;15.03;3.33;;;10.30;99.90;;;;;;4985180;28;20206;-62
2022/05/29 00:37:24;;;;;;;11.83;2.90;;;10.50;99.90;;;;;;4979701;28;20195;-62
2022/05/29 00:39:51;;;;;;;11.13;2.77;;;10.40;99.90;;;;;;4990932;28;20217;-62
2022/05/29 00:42:23;;;;;;;16.77;3.07;;;8.00;99.90;;;;;;4973968;28;20234;-63
2022/05/29 00:44:50;;;;;;;14.07;2.50;;;10.40;99.90;;;;;;4983987;28;20207;-62
2022/05/29 00:47:19;;;;;;;15.90;3.67;;;10.40;99.90;;;;;;4983035;28;20691;-62
2022/05/29 00:49:48;;;;;;;9.75;2.63;;;10.40;99.90;;;;;;4991287;28;20274;-62
2022/05/29 00:52:18;;;;;;;11.53;2.97;;;10.40;99.90;;;;;;4983233;28;20207;-62
2022/05/29 00:54:53;;;;;;;10.23;3.15;;;10.40;99.90;;;;;;4993184;28;20942;-62
2022/05/29 00:57:27;;;;;;;15.70;2.87;;;10.50;99.90;;;;;;4975646;28;20212;-62
2022/05/29 00:59:55;;;;;;;14.77;2.70;;;10.40;99.90;;;;;;4980991;28;20212;-62
2022/05/29 01:02:22;;;;;;;8.23;2.40;;;10.40;99.90;;;;;;4979356;28;20234;-62
2022/05/29 01:04:49;;;;;;;14.03;2.97;;;10.30;99.90;;;;;;4978926;28;20666;-62
2022/05/29 01:07:18;;;;;;;14.17;2.90;;;10.40;99.90;;;;;;4987366;28;20915;-61
2022/05/29 01:09:48;;;;;;;9.10;2.57;;;10.40;99.90;;;;;;4979767;28;20207;-62
2022/05/29 01:12:31;;;;;;;16.83;2.63;;;10.20;99.90;;;;;;4975564;28;20211;-62
2022/05/29 01:15:07;;;;;;;13.77;2.80;;;10.40;99.90;;;;;;4992490;28;20218;-62
2022/05/29 01:17:42;;;;;;;13.43;2.70;;;10.40;99.90;;;;;;4975724;28;20210;-61
2022/05/29 01:20:39;;;;;;;14.50;2.57;;;10.40;99.90;;;;;;4991601;28;20301;-61
2022/05/29 01:23:55;;;;;;;10.47;2.43;;;10.40;99.90;;;;;;4986102;28;20868;-62
2022/05/29 01:26:43;;;;;;;7.15;2.20;;;10.40;99.90;;;;;;4987491;28;20225;-61
2022/05/29 01:29:15;;;;;;;11.10;2.33;;;10.40;99.90;;;;;;4969486;28;20676;-62
2022/05/29 01:31:48;;;;;;;13.90;3.13;;;10.40;99.90;;;;;;4968414;28;20211;-62
2022/05/29 01:34:26;;;;;;;20.47;3.47;;;10.40;99.90;;;;;;4977004;28;20214;-62
2022/05/29 01:37:13;;;;;;;12.60;2.20;;;10.40;99.90;;;;;;4982349;28;20213;-62
2022/05/29 01:39:49;;;;;;;11.40;2.50;;;10.40;99.90;;;;;;4979069;28;20211;-62
2022/05/29 01:42:25;;;;;;;7.30;2.23;;;10.40;99.90;;;;;;4988235;28;20489;-62
2022/05/29 01:45:00;;;;;;;15.20;2.53;;;10.40;99.90;;;;;;4973136;28;20609;-62
2022/05/29 01:47:33;;;;;;;13.30;2.60;;;10.40;99.90;;;;;;4968081;28;20674;-62
2022/05/29 01:50:06;;;;;;;12.70;2.40;;;13.20;99.90;;;;;;4987437;28;20578;-62
2022/05/29 01:52:42;;;;;;;8.63;2.53;;;10.40;99.90;;;;;;4977538;28;20202;-61
2022/05/29 01:55:14;;;;;;;9.85;2.20;;;10.40;99.90;;;;;;4980531;28;20598;-62
2022/05/29 01:57:44;;;;;;;11.80;2.70;;;10.40;99.90;;;;;;4983480;28;20580;-61
2022/05/29 02:00:17;;;;;;;12.23;2.63;;;10.40;99.90;;;;;;4972100;28;20225;-62
2022/05/29 02:02:49;;;;;;;8.80;2.50;;;10.20;99.90;;;;;;4979736;28;20224;-62
2022/05/29 02:05:19;;;;;;;20.47;2.80;;;10.40;99.90;;;;;;4976498;28;20225;-62
2022/05/29 02:07:48;;;;;;;14.02;3.00;;;10.50;99.90;;;;;;4980212;28;20246;-62
2022/05/29 02:10:21;;;;;;;9.23;2.67;;;10.40;99.90;;;;;;4980121;28;20206;-62
2022/05/29 02:12:53;;;;;;;4.63;2.20;;;10.40;99.90;;;;;;4989248;28;20229;-62
2022/05/29 02:15:28;;;;;;;11.03;2.60;;;10.40;99.90;;;;;;4974114;28;20613;-62
2022/05/29 02:17:59;;;;;;;14.60;2.40;;;10.50;99.90;;;;;;4978012;28;20868;-62
2022/05/29 02:20:31;;;;;;;16.70;3.00;;;10.50;99.90;;;;;;4976013;28;20238;-62
2022/05/29 02:23:03;;;;;;;13.80;3.50;;;10.50;99.90;;;;;;4993243;28;20230;-62
2022/05/29 02:25:31;;;;;;;15.50;2.90;;;10.50;99.90;;;;;;4976009;28;20607;-62
2022/05/29 02:28:02;;;;;;;15.27;2.93;;;10.50;99.90;;;;;;4992802;28;20528;-62
2022/05/29 02:30:38;;;;;;;7.90;2.40;;;10.70;99.90;;;;;;4974364;28;20218;-62
2022/05/29 02:33:09;;;;;;;12.67;2.83;;;10.50;99.90;;;;;;4980930;28;20203;-62
2022/05/29 02:35:41;;;;;;;9.17;2.30;;;8.70;99.90;;;;;;4984198;28;20199;-62
2022/05/29 02:38:14;;;;;;;6.83;2.93;;;10.50;99.90;;;;;;4993929;28;20694;-62
2022/05/29 02:40:50;;;;;;;7.27;2.77;;;10.60;99.90;;;;;;4982781;28;20217;-62
2022/05/29 02:43:24;;;;;;;8.43;2.95;;;10.50;99.90;;;;;;4984341;28;20234;-62
2022/05/29 02:46:00;;;;;;;9.63;3.03;;;10.50;99.90;;;;;;4974634;28;20226;-62
2022/05/29 02:48:33;;;;;;;11.63;3.75;;;10.50;99.90;;;;;;4977270;28;20208;-61
2022/05/29 02:51:17;;;;;;;8.87;2.70;;;10.50;99.90;;;;;;4978625;28;20241;-62
2022/05/29 02:53:46;;;;;;;5.63;2.30;;;10.50;99.90;;;;;;4990884;28;20210;-60
2022/05/29 02:56:14;;;;;;;12.95;2.95;;;10.50;99.90;;;;;;4977319;28;20207;-60
2022/05/29 02:58:44;;;;;;;13.87;3.13;;;10.50;99.90;;;;;;4992938;28;20209;-60
2022/05/29 03:01:20;;;;;;;14.37;2.80;;;10.50;99.90;;;;;;4976123;28;20211;-60
2022/05/29 03:04:05;;;;;;;9.37;2.93;;;10.60;99.90;;;;;;4979332;28;20236;-60
2022/05/29 03:06:46;;;;;;;10.27;2.30;;;10.60;99.90;;;;;;4986083;28;20748;-60
2022/05/29 03:09:35;;;;;;;13.63;2.53;;;10.50;99.90;;;;;;4992847;28;20204;-60
2022/05/29 03:12:06;;;;;;;8.60;2.83;;;10.60;99.90;;;;;;4980679;28;20237;-60
2022/05/29 03:14:44;;;;;;;4.97;2.17;;;10.50;99.90;;;;;;4990877;28;20207;-60
2022/05/29 03:17:20;;;;;;;11.13;3.33;;;10.50;99.90;;;;;;4974023;28;20234;-60
2022/05/29 03:19:53;;;;;;;13.87;3.10;;;10.50;99.90;;;;;;4977288;28;20210;-60
2022/05/29 03:22:30;;;;;;;10.20;2.83;;;10.60;99.90;;;;;;4978907;28;20234;-60
2022/05/29 03:25:03;;;;;;;11.60;3.00;;;10.50;99.90;;;;;;4977989;28;20217;-60
2022/05/29 03:27:42;;;;;;;15.18;3.03;;;10.50;99.90;;;;;;4979456;28;20219;-60
2022/05/29 03:30:14;;;;;;;10.17;2.53;;;10.60;99.90;;;;;;4986240;28;20219;-60
2022/05/29 03:32:43;;;;;;;12.97;3.37;;;10.60;99.90;;;;;;4971341;28;20204;-60
2022/05/29 03:35:24;;;;;;;11.90;2.90;;;10.60;99.90;;;;;;4972733;28;20690;-60
2022/05/29 03:37:51;;;;;;;15.67;3.00;;;10.60;99.90;;;;;;4981849;28;20253;-59
2022/05/29 03:40:19;;;;;;;8.57;2.27;;;10.60;99.90;;;;;;4982807;28;20207;-60
2022/05/29 03:42:46;;;;;;;4.83;2.60;;;10.60;99.90;;;;;;4982915;28;20229;-60
2022/05/29 03:45:13;;;;;;;11.97;2.37;;;10.60;99.90;;;;;;4992657;28;20205;-59
2022/05/29 03:47:42;;;;;;;15.00;2.73;;;10.80;99.90;;;;;;4976289;28;20664;-60
2022/05/29 03:50:12;;;;;;;14.40;3.03;;;10.60;99.90;;;;;;4977150;28;20509;-59
2022/05/29 03:52:39;;;;;;;8.93;2.43;;;10.60;99.90;;;;;;4991588;28;20211;-60
2022/05/29 03:55:07;;;;;;;8.18;2.38;;;10.60;99.90;;;;;;4972241;28;21018;-60
2022/05/29 03:57:34;;;;;;;9.07;3.60;;;9.80;99.90;;;;;;4977643;28;20238;-60
2022/05/29 04:00:00;;;;;;;8.25;2.53;;;10.60;99.90;;;;;;4989044;28;20223;-59
2022/05/29 04:02:27;;;;;;;11.47;3.00;;;10.60;99.90;;;;;;4966354;28;20230;-60
2022/05/29 04:04:55;;;;;;;12.97;2.43;;;10.70;99.90;;;;;;4979289;28;20685;-60
2022/05/29 04:12:03;;;;;;;8.23;2.33;;;10.70;99.90;;;;;;4979354;28;21156;-60
2022/05/29 04:13:00;;;;;;;9.80;2.53;;;10.40;99.90;;;;;;4896551;28;20240;-60
2022/05/29 04:15:28;;;;;;;9.57;2.73;;;10.80;99.90;;;;;;4990180;28;20848;-60
2022/05/29 04:17:55;;;;;;;11.47;2.90;;;11.50;99.90;;;;;;4982013;28;20715;-61
2022/05/29 04:20:23;;;;;;;9.80;2.78;;;10.90;99.90;;;;;;4972584;28;20202;-60
2022/05/29 04:22:50;;;;;;;9.73;3.37;;;10.60;99.90;;;;;;4987571;28;20423;-60
2022/05/29 04:25:17;;;;;;;10.63;2.83;;;10.50;99.90;;;;;;4989172;28;20209;-60
2022/05/29 04:27:43;;;;;;;11.77;2.80;;;10.70;99.90;;;;;;4989872;28;20203;-60
2022/05/29 04:30:12;;;;;;;10.67;3.23;;;10.70;99.90;;;;;;4978819;28;20218;-60
2022/05/29 04:35:24;;;;;;;8.47;2.90;;;10.50;99.90;;;;;;4960931;28;20222;-61
2022/05/29 04:37:51;;;;;;;11.30;2.70;;;10.70;99.90;;;;;;4989686;28;20209;-60
2022/05/29 04:40:18;;;;;;;9.27;2.67;;;10.60;99.90;;;;;;4989639;28;20211;-60
2022/05/29 04:42:45;;;;;;;9.30;2.60;;;10.60;99.90;;;;;;4987802;28;20247;-60
2022/05/29 04:45:12;;;;;;;11.20;2.37;;;10.70;99.90;;;;;;4981437;28;20210;-60
2022/05/29 04:47:38;;;;;;;8.80;2.33;;;10.80;99.90;;;;;;4989494;28;22223;-60
2022/05/29 04:50:07;;;;;;;9.83;2.30;;;10.70;99.90;;;;;;4968444;28;20227;-61
2022/05/29 04:52:35;;;;;;;17.03;2.67;;;10.70;99.90;;;;;;4977189;28;20222;-60
2022/05/29 04:55:03;;;;;;;13.90;2.77;;;10.80;99.90;;;;;;4990622;28;20203;-60
2022/05/29 04:57:30;;;;;;;8.20;2.17;;;10.80;99.90;;;;;;4981050;28;20214;-60
2022/05/29 04:59:58;;;;;;;9.67;2.57;;;10.60;99.90;;;;;;4977947;28;20909;-60
2022/05/29 05:02:25;;;;;;;14.37;3.23;;;10.80;99.90;;;;;;4987947;28;20696;-60
2022/05/29 05:04:52;;;;;;;12.57;2.77;;;9.00;99.90;;;;;;4962581;28;20211;-60
2022/05/29 05:07:19;;;;;;;8.80;2.53;;;10.70;99.90;;;;;;4970395;28;20577;-60
2022/05/29 05:09:48;;;;;;;12.00;3.00;;;10.70;99.90;;;;;;4991176;28;20202;-60
2022/05/29 05:12:15;;;;;;;11.80;2.67;;;11.00;99.90;;;;;;4985753;28;20229;-60
2022/05/29 05:14:42;;;;;;;14.13;3.10;;;10.80;99.90;;;;;;4978280;28;20231;-60
2022/05/29 05:17:09;;;;;;;11.30;3.07;;;10.90;99.90;;;;;;4979914;28;20210;-60
2022/05/29 05:19:36;;;;;;;9.50;2.37;;;10.80;99.90;;;;;;4994389;28;20194;-60
2022/05/29 05:22:05;;;;;;;12.40;2.77;;;10.90;99.90;;;;;;4962715;28;20207;-60
2022/05/29 05:24:34;;;;;;;12.07;2.93;;;9.50;99.90;;;;;;4987562;28;20237;-60
2022/05/29 05:27:03;;;;;;;9.80;2.83;;;10.80;99.90;;;;;;4987656;28;20214;-60
2022/05/29 05:29:30;;;;;;;13.13;2.87;;;10.80;99.90;;;;;;4974402;28;20603;-60
2022/05/29 05:31:57;;;;;;;12.57;3.30;;;10.80;99.90;;;;;;4990140;28;20194;-60
2022/05/29 05:34:24;;;;;;;9.90;3.07;;;10.80;99.90;;;;;;4988526;28;20199;-60
2022/05/29 05:36:50;;;;;;;15.03;3.07;;;10.90;99.90;;;;;;4971866;28;20565;-60
2022/05/29 05:39:18;;;;;;;6.40;2.07;;;;;;;;;;4977478;28;20209;-60
2022/05/29 05:41:45;;;;;;;11.20;2.73;;;10.90;99.90;;;;;;4992742;28;20198;-60
2022/05/29 05:44:13;;;;;;;9.90;2.83;;;10.80;99.90;;;;;;4977602;28;20432;-60
2022/05/29 05:46:45;;;;;;;8.77;2.60;;;10.80;99.90;;;;;;4990165;28;20195;-60
2022/05/29 05:49:12;;;;;;;11.40;2.87;;;10.90;99.90;;;;;;4985295;28;20729;-60
2022/05/29 05:51:38;;;;;;;8.00;2.43;;;10.70;99.90;;;;;;4973594;28;20294;-60
2022/05/29 05:54:06;;;;;;;9.83;2.50;;;10.90;99.90;;;;;;4975333;28;20207;-61
2022/05/29 05:56:32;;;;;;;20.00;3.97;;;10.90;99.90;;;;;;4984347;28;20299;-60
2022/05/29 05:58:59;;;;;;;9.53;2.83;;;10.90;99.90;;;;;;4978639;28;20573;-60
2022/05/29 06:01:27;;;;;;;10.47;2.50;;;10.90;99.90;;;;;;4980090;28;20203;-60
2022/05/29 06:03:54;;;;;;;11.30;2.83;;;10.90;99.90;;;;;;4962773;28;20234;-61
2022/05/29 06:06:21;;;;;;;13.37;2.70;;;10.80;99.90;;;;;;4988617;28;20201;-60
2022/05/29 06:08:48;;;;;;;10.73;3.23;;;10.90;99.90;;;;;;4968337;28;20203;-60
2022/05/29 06:11:15;;;;;;;12.13;2.87;;;10.90;99.90;;;;;;4982820;28;20222;-60
2022/05/29 06:13:42;;;;;;;10.63;2.57;;;10.90;99.90;;;;;;4990853;28;20707;-60
2022/05/29 06:16:09;;;;;;;6.47;3.03;;;10.80;99.90;;;;;;4982813;28;20207;-60
2022/05/29 06:18:37;;;;;;;11.90;2.70;;;10.90;99.90;;;;;;4980530;28;20205;-61
2022/05/29 06:21:05;;;;;;;8.33;2.70;;;11.20;99.90;;;;;;4991356;28;20195;-61
2022/05/29 06:23:33;;;;;;;5.67;2.33;;;11.20;99.90;;;;;;4962200;28;20236;-60
2022/05/29 06:26:01;;;;;;;15.20;3.27;;;11.10;99.90;;;;;;4978990;28;20222;-61
2022/05/29 06:28:28;;;;;;;20.60;2.70;;;11.10;99.90;;;;;;4989541;28;20766;-60
2022/05/29 06:30:55;;;;;;;13.10;2.70;;;10.90;99.90;;;;;;4978404;28;20586;-60
2022/05/29 06:33:22;;;;;;;11.33;2.93;;;11.20;99.90;;;;;;4975395;28;20232;-60
2022/05/29 06:35:51;;;;;;;6.30;2.20;;;11.00;99.90;;;;;;4986307;28;20596;-60
2022/05/29 06:38:18;;;;;;;12.33;2.70;;;10.80;99.90;;;;;;4981403;28;20308;-60
2022/05/29 06:40:49;;;;;;;9.83;3.03;;;11.00;99.90;;;;;;4973047;28;21036;-61
2022/05/29 06:43:16;;;;;;;12.10;2.43;;;10.90;99.90;;;;;;4982669;28;20711;-60
2022/05/29 06:45:43;;;;;;;14.97;3.63;;;11.00;99.90;;;;;;4980088;28;20215;-60
2022/05/29 06:48:10;;;;;;;8.57;2.90;;;11.00;99.90;;;;;;4976436;28;21145;-60
2022/05/29 06:50:36;;;;;;;11.77;2.97;;;11.00;99.90;;;;;;4974145;28;20231;-60
2022/05/29 06:53:05;;;;;;;15.03;3.40;;;10.90;99.90;;;;;;4972772;28;20774;-60
2022/05/29 06:55:32;;;;;;;7.43;2.30;;;10.90;99.90;;;;;;4959356;28;20223;-60
2022/05/29 06:57:59;;;;;;;7.77;2.97;;;10.90;99.90;;;;;;4971911;28;20249;-60
2022/05/29 07:08:53;;;;;;;9.60;2.33;;;10.90;99.90;;;;;;4963325;28;21181;-61
2022/05/29 07:11:24;;;;;;;7.00;2.57;;;10.80;99.90;;;;;;4976178;28;20223;-61
2022/05/29 07:13:51;;;;;;;11.23;2.47;;;9.60;99.90;;;;;;4984315;28;20203;-61
2022/05/29 07:16:18;;;;;;;14.40;2.53;;;10.90;99.90;;;;;;4988880;28;20206;-60
2022/05/29 07:18:45;;;;;;;15.37;2.47;;;10.90;99.90;;;;;;4977732;28;20213;-60
2022/05/29 07:21:12;;;;;;;14.60;2.73;;;11.20;99.90;;;;;;4978070;28;20207;-61
2022/05/29 07:23:38;;;;;;;7.07;2.23;;;11.00;99.90;;;;;;4984982;28;20230;-61
2022/05/29 07:26:07;;;;;;;8.90;2.97;;;10.90;99.90;;;;;;4963351;28;21031;-60
2022/05/29 07:28:33;;;;;;;9.23;2.57;;;11.00;99.90;;;;;;4988719;28;20665;-60
2022/05/29 07:31:00;;;;;;;9.67;2.97;;;11.00;99.90;;;;;;4985440;28;20199;-60
2022/05/29 07:33:27;;;;;;;11.47;3.10;;;11.10;99.90;;;;;;4973225;28;20261;-60
2022/05/29 07:35:54;;;;;;;16.03;2.83;;;11.00;99.90;;;;;;4961420;28;20237;-61
2022/05/29 07:38:22;;;;;;;8.37;2.80;;;10.90;99.90;;;;;;4978240;28;20222;-60
2022/05/29 07:40:49;;;;;;;13.23;3.30;;;11.00;99.90;;;;;;4972089;28;20748;-60
2022/05/29 07:43:19;;;;;;;6.20;2.97;;;11.10;99.90;;;;;;4977559;28;20206;-61
2022/05/29 07:45:46;;;;;;;5.83;2.30;;;11.10;99.90;;;;;;4988186;28;20201;-60
2022/05/29 07:48:12;;;;;;;14.30;3.20;;;11.10;99.90;;;;;;4976697;28;20953;-61
2022/05/29 07:50:40;;;;;;;11.70;2.90;;;11.60;99.90;;;;;;4984806;28;20639;-60
2022/05/29 07:53:06;;;;;;;11.10;2.50;;;11.30;99.90;;;;;;4956939;23;20321;-61
2022/05/29 07:55:34;;;;;;;8.23;2.40;;;11.10;99.90;;;;;;4940772;28;20222;-60
2022/05/29 07:58:01;;;;;;;8.80;2.43;;;11.40;99.90;;;;;;4953518;28;20227;-61
2022/05/29 08:00:29;;;;;;;8.67;2.70;;;;;;;;;;4982115;28;20222;-61
2022/05/29 08:02:56;;;;;;;5.47;2.07;;;11.40;99.90;;;;;;4959109;28;20223;-61
2022/05/29 08:05:23;;;;;;;6.80;2.10;;;11.90;99.90;;;;;;4991345;28;20527;-61
2022/05/29 08:07:51;;;;;;;7.63;2.87;;;11.30;99.90;;;;;;4977617;28;20199;-63
2022/05/29 08:10:21;;;;;;;9.27;2.30;;;11.40;99.90;;;;;;4982680;28;20214;-62
2022/05/29 08:12:48;;;;;;;4.53;1.83;;;11.30;99.90;;;;;;4971130;28;20237;-62
2022/05/29 08:15:16;;;;;;;6.13;2.03;;;11.40;99.90;;;;;;4989280;28;20233;-62
2022/05/29 08:17:44;;;;;;;7.23;2.37;;;11.30;99.90;;;;;;4990395;28;20237;-62
2022/05/29 08:20:13;;;;;;;5.60;1.80;;;11.40;99.90;;;;;;4992560;28;20206;-61
2022/05/29 08:22:40;;;;;;;9.33;2.00;;;11.60;99.90;;;;;;5000852;28;20918;-63
2022/05/29 08:30:41;;;;;;;9.93;2.47;;;11.40;99.90;;;;;;4990040;28;20212;-62
2022/05/29 08:33:12;;;;;;;12.10;2.00;;;13.30;99.90;;;;;;4989684;28;20210;-63
2022/05/29 08:35:41;;;;;;;8.20;2.30;;;11.10;99.90;;;;;;5005655;28;20222;-63
2022/05/29 08:38:10;;;;;;;12.33;2.47;;;11.10;99.90;;;;;;5003981;28;20576;-62
2022/05/29 08:40:42;;;;;;;6.30;2.40;;;11.10;99.90;;;;;;4993884;28;20488;-62
2022/05/29 08:43:13;;;;;;;7.13;2.47;;;11.00;99.90;;;;;;4986503;28;20218;-62
2022/05/29 08:45:40;;;;;;;16.97;2.50;;;11.10;99.90;;;;;;4980864;28;20226;-63
2022/05/29 08:48:10;;;;;;;9.50;2.30;;;11.30;99.90;;;;;;4990941;28;20207;-62
2022/05/29 08:50:43;;;;;;;8.13;2.10;;;11.50;99.90;;;;;;4986151;28;20663;-62
2022/05/29 08:53:21;;;;;;;8.50;2.33;;;11.20;99.90;;;;;;4997538;28;20229;-63
2022/05/29 08:55:52;;;;;;;11.03;2.47;;;11.20;99.90;;;;;;5006782;28;20206;-62
2022/05/29 08:58:29;;;;;;;8.30;2.03;;;11.20;99.90;;;;;;4968849;28;20206;-61
2022/05/29 09:01:06;;;;;;;4.87;1.93;;;11.20;99.90;;;;;;5023479;23;20764;-62
2022/05/29 09:03:56;;;;;;;13.37;2.73;;;11.50;99.90;;;;;;5016794;28;20790;-61
2022/05/29 09:06:30;;;;;;;8.40;2.20;;;11.30;99.90;;;;;;5020934;28;20417;-62
2022/05/29 09:09:05;;;;;;;5.47;2.10;;;11.20;99.90;;;;;;5031937;28;20352;-62
2022/05/29 09:11:37;;;;;;;6.33;1.67;;;11.10;99.90;;;;;;5039915;28;20304;-62
2022/05/29 09:14:12;;;;;;;8.10;2.00;;;11.10;99.90;;;;;;5000349;28;20224;-62
2022/05/29 09:16:45;;;;;;;8.33;2.40;;;10.70;99.90;;;;;;5035394;28;20197;-62
2022/05/29 09:19:30;;;;;;;6.93;2.33;;;11.00;99.90;;;;;;5018199;28;20872;-62
2022/05/29 09:22:06;;;;;;;6.43;2.10;;;11.00;99.90;;;;;;5038749;28;20205;-62
2022/05/29 09:24:48;;;;;;;7.03;1.80;;;11.00;99.90;;;;;;5043023;28;20251;-62
2022/05/29 09:27:17;;;;;;;7.80;1.77;;;11.00;99.90;;;;;;5034985;28;20225;-61
2022/05/29 09:29:44;;;;;;;6.30;1.73;;;11.00;99.90;;;;;;5027015;28;20212;-62
2022/05/29 09:32:16;;;;;;;6.77;2.03;;;10.30;99.90;;;;;;5034278;28;20228;-61
2022/05/29 09:34:56;;;;;;;8.43;1.50;;;11.00;99.90;;;;;;5013264;28;20231;-62
2022/05/29 09:37:30;;;;;;;5.93;1.90;;;10.90;99.90;;;;;;5026466;28;20770;-61
2022/05/29 09:40:00;;;;;;;7.77;2.00;;;11.10;99.90;;;;;;5040027;28;20726;-62
2022/05/29 09:42:34;;;;;;;8.93;1.80;;;11.00;99.90;;;;;;5043351;28;20212;-62
2022/05/29 09:45:10;;;;;;;5.53;2.13;;;11.20;99.90;;;;;;5031392;28;20221;-61
2022/05/29 09:50:25;;;;;;;6.90;2.00;;;11.20;99.90;;;;;;5028207;28;20721;-62
2022/05/29 09:52:52;;;;;;;13.90;3.63;;;11.20;99.90;;;;;;5019384;28;20323;-61
2022/05/29 09:55:26;;;;;;;8.70;1.83;;;11.30;99.90;;;;;;5041925;28;21513;-61
2022/05/29 09:57:57;;;;;;;8.37;2.10;;;12.70;99.90;;;;;;5018419;28;20534;-60
2022/05/29 10:00:30;;;;;;;9.07;2.20;;;11.20;99.90;;;;;;5002827;28;20710;-63
2022/05/29 10:02:59;;;;;;;8.63;2.30;;;11.20;99.90;;;;;;5031766;28;20217;-60
2022/05/29 10:05:29;;;;;;;7.27;2.43;;;11.10;99.90;;;;;;5030779;28;20220;-60
2022/05/29 10:07:59;;;;;;;5.13;1.97;;;11.10;99.90;;;;;;5001636;28;25328;-61
2022/05/29 10:10:34;;;;;;;8.07;1.80;;;11.50;99.90;;;;;;5028539;28;20233;-61
2022/05/29 10:13:03;;;;;;;4.90;1.47;;;10.90;99.90;;;;;;5007666;28;20570;-62
2022/05/29 10:15:39;;;;;;;5.97;1.60;;;11.10;99.90;;;;;;5017206;28;20251;-62
2022/05/29 10:18:21;;;;;;;6.57;1.33;;;;;;;;;;5010968;28;20229;-62
2022/05/29 10:20:50;;;;;;;7.07;2.33;;;11.40;99.90;;;;;;5026934;28;20247;-62
2022/05/29 10:23:32;;;;;;;6.33;2.03;;;11.40;99.90;;;;;;5019222;28;20730;-62
2022/05/29 10:26:01;;;;;;;11.40;2.30;;;11.50;99.90;;;;;;5028560;28;20270;-62
2022/05/29 10:28:32;;;;;;;7.30;1.90;;;11.40;99.90;;;;;;5022938;28;20838;-62
2022/05/29 10:31:01;;;;;;;7.23;2.33;;;11.40;99.90;;;;;;5030992;28;20244;-62
2022/05/29 10:33:30;;;;;;;2.93;1.70;;;11.30;99.90;;;;;;5015174;28;20320;-62
2022/05/29 10:36:11;;;;;;;12.53;2.37;;;11.30;99.90;;;;;;5010443;28;20212;-61
2022/05/29 10:38:38;;;;;;;10.10;1.77;;;11.20;99.90;;;;;;5027173;28;20282;-62
2022/05/29 10:41:06;;;;;;;4.60;1.80;;;11.40;99.90;;;;;;5039521;28;20196;-62
2022/05/29 10:43:38;;;;;;;9.40;1.87;;;11.40;99.90;;;;;;5028713;28;21576;-62
2022/05/29 10:46:06;;;;;;;6.90;2.58;;;11.50;99.90;;;;;;5045733;28;20726;-62
2022/05/29 10:48:49;;;;;;;6.80;1.83;;;11.50;99.90;;;;;;5019965;28;20209;-62
2022/05/29 10:51:23;;;;;;;9.00;1.93;;;12.20;99.90;;;;;;5018140;28;20200;-62
2022/05/29 10:54:07;;;;;;;10.30;2.28;;;11.60;99.90;;;;;;5029271;28;20673;-63
2022/05/29 10:56:51;;;;;;;10.20;2.67;;;11.30;99.90;;;;;;5026784;28;20231;-63
2022/05/29 10:59:37;;;;;;;10.63;2.20;;;12.10;99.90;;;;;;5013517;28;20321;-64
2022/05/29 11:05:12;;;;;;;6.67;1.77;;;11.30;99.90;;;;;;5023043;28;20329;-63
2022/05/29 11:07:55;;;;;;;7.90;2.00;;;11.20;99.90;;;;;;5007427;28;20209;-63
2022/05/29 11:10:36;;;;;;;6.27;1.90;;;11.50;99.90;;;;;;5027774;28;20225;-63
2022/05/29 11:13:21;;;;;;;7.03;1.70;;;11.40;99.90;;;;;;5024495;28;20209;-63
2022/05/29 11:16:04;;;;;;;8.03;2.07;;;11.60;99.90;;;;;;5040848;28;20732;-62
2022/05/29 11:18:55;;;;;;;4.40;1.98;;;11.30;99.90;;;;;;5013944;28;20952;-63
2022/05/29 11:21:36;;;;;;;6.25;2.00;;;12.00;99.90;;;;;;5024073;28;20222;-63
2022/05/29 11:24:23;;;;;;;5.18;1.90;;;11.60;99.90;;;;;;5018401;28;20228;-63
2022/05/29 11:27:00;;;;;;;7.53;1.60;;;11.70;99.90;;;;;;5030053;28;20232;-63
2022/05/29 11:29:40;;;;;;;10.10;1.98;;;11.50;99.90;;;;;;5016692;28;20221;-64
2022/05/29 11:32:20;;;;;;;9.23;1.70;;;11.40;99.90;;;;;;5033034;23;20239;-63
2022/05/29 11:35:00;;;;;;;5.57;1.50;;;11.60;99.90;;;;;;4993395;28;20236;-64
2022/05/29 11:38:01;;;;;;;3.85;1.42;;;11.50;99.90;;;;;;4998919;28;20232;-63
2022/05/29 11:40:32;;;;;;;4.47;1.57;;;11.30;99.90;;;;;;4993086;28;20198;-63
2022/05/29 11:43:06;;;;;;;8.03;1.93;;;12.70;99.90;;;;;;4995841;28;20440;-62
2022/05/29 11:51:23;;;;;;;6.63;2.08;;;11.60;99.90;;;;;;5013984;28;20928;-62
2022/05/29 11:53:59;;;;;;;7.53;2.30;;;11.60;99.90;;;;;;4995521;28;21196;-62
2022/05/29 11:56:35;;;;;;;4.93;1.30;;;11.40;99.90;;;;;;5024322;28;20694;-62
2022/05/29 11:59:11;;;;;;;6.18;1.65;;;11.50;99.90;;;;;;4988005;28;20233;-63
2022/05/29 12:01:41;;;;;;;4.88;1.95;;;11.20;99.90;;;;;;5007409;28;20204;-62
2022/05/29 12:04:13;;;;;;;9.85;2.10;;;11.40;99.90;;;;;;5012466;23;20235;-63
2022/05/29 12:06:45;;;;;;;5.77;1.70;;;11.40;99.90;;;;;;5000554;22;20833;-62
2022/05/29 12:09:17;;;;;;;7.60;1.75;;;11.30;99.90;;;;;;4971299;28;20588;-63
2022/05/29 12:11:49;;;;;;;3.92;1.58;;;11.40;99.90;;;;;;4992152;28;20222;-62
2022/05/29 12:14:22;;;;;;;8.20;2.10;;;11.30;99.90;;;;;;4952568;28;20665;-63
2022/05/29 12:16:54;;;;;;;8.27;1.80;;;11.50;99.90;;;;;;4972600;28;20237;-62
2022/05/29 12:19:23;;;;;;;4.90;1.50;;;11.40;99.90;;;;;;4967331;28;20221;-62
2022/05/29 12:21:54;;;;;;;8.48;2.08;;;11.20;99.90;;;;;;4988773;28;20194;-63
2022/05/29 12:24:28;;;;;;;7.03;2.00;;;11.30;99.90;;;;;;4968395;28;20202;-63
2022/05/29 12:27:04;;;;;;;10.23;2.07;;;11.20;99.90;;;;;;4988292;28;20210;-63
2022/05/29 12:29:35;;;;;;;10.13;2.47;;;11.20;99.90;;;;;;4976685;28;20690;-63
2022/05/29 12:32:06;;;;;;;5.43;1.77;;;11.50;99.90;;;;;;4969069;28;20263;-63
2022/05/29 12:34:41;;;;;;;9.27;1.80;;;11.50;99.90;;;;;;4995109;28;20218;-62
2022/05/29 12:37:37;;;;;;;7.03;1.73;;;11.30;99.90;;;;;;4972105;28;20336;-62
2022/05/29 12:40:39;;;;;;;5.73;2.03;;;11.40;99.90;;;;;;4977930;28;20225;-62
2022/05/29 12:43:37;;;;;;;10.85;2.20;;;11.50;99.90;;;;;;4982890;28;20193;-63
2022/05/29 12:46:15;;;;;;;6.10;2.03;;;11.50;99.90;;;;;;4955758;28;20789;-63
2022/05/29 12:49:06;;;;;;;11.38;2.38;;;11.60;99.90;;;;;;4988743;28;20515;-63
2022/05/29 12:51:52;;;;;;;8.70;2.15;;;10.20;99.90;;;;;;4972784;28;20209;-62
2022/05/29 12:54:49;;;;;;;8.38;2.20;;;11.90;99.90;;;;;;4982048;28;20778;-62
2022/05/29 12:58:02;;;;;;;7.63;2.05;;;11.70;99.90;;;;;;4997978;28;20194;-63
2022/05/29 13:00:49;;;;;;;14.52;2.35;;;11.50;99.90;;;;;;4976975;28;20276;-63
2022/05/29 13:03:58;;;;;;;6.18;1.63;;;11.40;99.90;;;;;;4983671;28;20206;-62
2022/05/29 13:06:56;;;;;;;6.15;1.67;;;11.20;99.90;;;;;;4978458;28;20893;-62
2022/05/29 13:09:37;;;;;;;6.75;1.98;;;11.20;99.90;;;;;;4977493;28;20609;-63
2022/05/29 13:12:08;;;;;;;5.70;2.03;;;11.10;99.90;;;;;;4995554;28;20206;-63
2022/05/29 13:14:36;;;;;;;6.63;1.93;;;11.00;99.90;;;;;;4984466;28;20416;-62
2022/05/29 13:17:08;;;;;;;4.37;1.90;;;11.10;99.90;;;;;;4977711;28;20773;-62
2022/05/29 13:20:05;;;;;;;11.17;2.73;;;11.10;99.90;;;;;;4987081;28;20289;-62
2022/05/29 13:22:57;;;;;;;14.13;2.37;;;11.20;99.90;;;;;;4932524;28;20206;-62
2022/05/29 13:25:27;;;;;;;9.45;2.25;;;11.50;99.90;;;;;;4978224;28;20394;-62
2022/05/29 13:27:56;;;;;;;11.43;2.20;;;11.30;99.90;;;;;;4991354;28;20993;-62
2022/05/29 13:30:58;;;;;;;9.35;2.25;;;12.00;99.90;;;;;;4978879;28;20480;-63
2022/05/29 13:33:49;;;;;;;12.25;2.40;;;11.40;99.90;;;;;;4996036;28;20206;-63
2022/05/29 13:37:09;;;;;;;12.02;2.13;;;11.50;99.90;;;;;;4985377;28;20563;-63
2022/05/29 13:40:03;;;;;;;10.02;2.20;;;11.40;99.90;;;;;;4976347;28;20226;-62
2022/05/29 13:42:37;;;;;;;6.00;2.00;;;11.40;99.90;;;;;;4989797;28;20206;-62